Time;durP1;ratioP1;P1;durP2;ratioP2;P2;SDS_P1;SDS_P2;PMS_P1;PMS_P2;Temp;Humidity;BMP_temperature;BMP_pressure;BME280_temperature;BME280_humidity;BME280_pressure;Samples;Min_cycle;Max_cycle;Signal;HPM_P1;HPM_P2
2023/08/05 00:00:09;;;;;;;113.27;101.10;;;17.80;99.90;;;;;;5080230;28;20419;-83
2023/08/05 00:02:35;;;;;;;117.63;105.23;;;17.60;99.90;;;;;;5080152;28;20161;-83
2023/08/05 00:05:00;;;;;;;119.67;106.83;;;17.60;99.90;;;;;;5079901;28;20454;-83
2023/08/05 00:07:26;;;;;;;118.60;106.20;;;17.70;99.90;;;;;;5080150;28;20167;-83
2023/08/05 00:09:51;;;;;;;121.23;108.73;;;17.60;99.90;;;;;;5079999;28;20188;-83
2023/08/05 00:12:17;;;;;;;128.13;115.33;;;17.60;99.90;;;;;;5061201;28;20172;-83
2023/08/05 00:14:43;;;;;;;115.23;103.10;;;17.70;99.90;;;;;;5078857;28;20194;-83
2023/08/05 00:17:08;;;;;;;118.60;106.17;;;17.60;99.90;;;;;;5079307;28;20164;-83
2023/08/05 00:19:34;;;;;;;125.80;112.80;;;17.60;99.90;;;;;;5061672;28;20186;-83
2023/08/05 00:22:00;;;;;;;123.57;111.03;;;17.60;99.90;;;;;;5078996;28;20632;-83
2023/08/05 00:24:25;;;;;;;116.43;103.97;;;17.50;99.90;;;;;;5079435;28;20176;-83
2023/08/05 00:26:51;;;;;;;121.57;108.13;;;17.50;99.90;;;;;;5061877;28;20168;-83
2023/08/05 00:29:17;;;;;;;121.90;109.20;;;17.40;99.90;;;;;;5078714;28;20563;-83
2023/08/05 00:31:42;;;;;;;119.53;107.07;;;17.40;99.90;;;;;;5078879;28;20160;-83
2023/08/05 00:34:11;;;;;;;118.83;106.10;;;17.40;99.90;;;;;;5078713;28;20169;-83
2023/08/05 00:36:36;;;;;;;116.40;104.30;;;17.40;99.90;;;;;;5079086;28;20688;-83
2023/08/05 00:39:02;;;;;;;123.40;110.83;;;17.30;99.90;;;;;;5078562;28;20458;-83
2023/08/05 00:41:28;;;;;;;122.40;110.10;;;17.30;99.90;;;;;;5061028;28;20167;-83
2023/08/05 00:43:53;;;;;;;116.63;104.63;;;17.30;99.90;;;;;;5078842;28;20164;-83
2023/08/05 00:46:22;;;;;;;122.20;109.77;;;17.30;99.90;;;;;;5060835;28;20179;-83
2023/08/05 00:48:50;;;;;;;114.87;102.57;;;17.30;99.90;;;;;;5078421;28;20190;-83
2023/08/05 00:51:18;;;;;;;110.57;98.73;;;17.30;99.90;;;;;;5077862;28;20437;-83
2023/08/05 00:53:46;;;;;;;103.60;82.93;;;17.20;99.90;;;;;;5079271;28;20977;-83
2023/08/05 00:56:12;;;;;;;100.20;80.37;;;17.20;99.90;;;;;;5061108;28;20442;-83
2023/08/05 00:58:38;;;;;;;107.60;86.67;;;17.20;99.90;;;;;;5078120;28;20422;-83
2023/08/05 01:01:04;;;;;;;127.23;114.17;;;17.10;99.90;;;;;;5060375;28;20405;-83
2023/08/05 01:03:29;;;;;;;114.80;102.53;;;17.10;99.90;;;;;;5079282;28;20812;-83
2023/08/05 01:05:58;;;;;;;119.93;107.70;;;17.10;99.90;;;;;;5078197;28;20247;-83
2023/08/05 01:08:23;;;;;;;127.53;115.03;;;17.00;99.90;;;;;;5078344;28;20412;-83
2023/08/05 01:10:50;;;;;;;113.37;101.43;;;17.00;99.90;;;;;;5060206;28;20446;-83
2023/08/05 01:13:15;;;;;;;103.80;90.53;;;17.00;99.90;;;;;;5077943;28;20194;-83
2023/08/05 01:15:41;;;;;;;109.07;93.17;;;17.00;99.90;;;;;;5078148;28;20438;-83
2023/08/05 01:18:09;;;;;;;94.60;70.57;;;17.00;99.90;;;;;;5077830;28;20160;-83
2023/08/05 01:20:39;;;;;;;105.87;88.80;;;17.00;99.90;;;;;;5077982;28;20164;-83
2023/08/05 01:23:28;;;;;;;98.10;74.20;;;16.90;99.90;;;;;;5078270;28;20921;-83
2023/08/05 01:25:54;;;;;;;95.10;68.50;;;16.90;99.90;;;;;;5064209;28;20555;-82
2023/08/05 01:28:21;;;;;;;93.80;59.63;;;16.90;99.90;;;;;;5059538;28;20438;-82
2023/08/05 01:30:48;;;;;;;118.03;103.93;;;16.90;99.90;;;;;;5077780;28;20523;-82
2023/08/05 01:33:16;;;;;;;103.60;84.13;;;16.90;99.90;;;;;;5078413;28;20493;-83
2023/08/05 01:35:48;;;;;;;107.33;89.37;;;16.80;99.90;;;;;;5077839;28;20438;-82
2023/08/05 01:38:14;;;;;;;110.00;93.80;;;16.80;99.90;;;;;;5077590;28;20382;-82
2023/08/05 01:40:40;;;;;;;101.27;75.23;;;16.80;99.90;;;;;;5077738;28;20406;-82
2023/08/05 01:43:06;;;;;;;106.17;84.37;;;16.70;99.90;;;;;;5077773;28;20255;-83
2023/08/05 01:45:31;;;;;;;113.43;101.13;;;16.70;99.90;;;;;;5078279;28;20566;-82
2023/08/05 01:47:57;;;;;;;106.93;88.83;;;16.70;99.90;;;;;;5077874;28;20409;-83
2023/08/05 01:50:23;;;;;;;112.43;100.17;;;16.60;99.90;;;;;;5078247;28;20183;-83
2023/08/05 01:52:49;;;;;;;107.93;96.23;;;16.60;99.90;;;;;;5060280;28;20199;-82
2023/08/05 01:55:15;;;;;;;108.47;96.87;;;16.50;99.90;;;;;;5077976;28;20806;-82
2023/08/05 01:57:40;;;;;;;113.77;101.27;;;16.50;99.90;;;;;;5059662;28;20409;-83
2023/08/05 02:00:07;;;;;;;109.50;96.30;;;16.50;99.90;;;;;;5078216;28;20187;-83
2023/08/05 02:02:32;;;;;;;107.63;85.50;;;16.60;99.90;;;;;;5060107;28;20573;-82
2023/08/05 02:04:58;;;;;;;104.47;86.73;;;16.50;99.90;;;;;;5077466;28;20552;-83
2023/08/05 02:07:23;;;;;;;107.17;87.77;;;16.50;99.90;;;;;;5077582;28;20199;-83
2023/08/05 02:09:49;;;;;;;108.20;94.43;;;16.50;99.90;;;;;;5077904;28;20192;-83
2023/08/05 02:12:15;;;;;;;108.23;87.77;;;16.50;99.90;;;;;;5059527;28;20178;-83
2023/08/05 02:14:40;;;;;;;118.67;105.97;;;16.50;99.90;;;;;;5077436;28;20183;-83
2023/08/05 02:17:06;;;;;;;127.47;114.27;;;16.50;99.90;;;;;;5077694;28;20631;-83
2023/08/05 02:19:32;;;;;;;120.87;108.23;;;16.50;99.90;;;;;;5077616;28;20190;-83
2023/08/05 02:21:57;;;;;;;112.10;100.20;;;16.50;99.90;;;;;;5077825;28;20399;-83
2023/08/05 02:24:23;;;;;;;102.60;86.87;;;16.40;99.90;;;;;;5138099;22;20284;-84
2023/08/05 02:26:49;;;;;;;123.43;110.13;;;16.40;99.90;;;;;;5097606;28;20173;-83
2023/08/05 02:29:14;;;;;;;105.90;93.20;;;16.40;99.90;;;;;;5079468;28;20681;-83
2023/08/05 02:31:40;;;;;;;110.60;98.87;;;16.40;99.90;;;;;;5097411;28;20164;-83
2023/08/05 02:34:06;;;;;;;125.20;112.37;;;16.40;99.90;;;;;;5097619;28;20243;-83
2023/08/05 02:36:31;;;;;;;110.60;95.33;;;16.40;99.90;;;;;;5097343;28;20188;-83
2023/08/05 02:38:57;;;;;;;100.27;83.70;;;16.30;99.90;;;;;;5101167;28;20173;-83
2023/08/05 02:41:22;;;;;;;103.60;81.33;;;16.30;99.90;;;;;;5101836;28;20190;-83
2023/08/05 02:43:48;;;;;;;135.17;121.80;;;16.30;99.90;;;;;;5100624;28;20175;-83
2023/08/05 02:46:14;;;;;;;131.53;118.40;;;16.20;99.90;;;;;;5100934;28;20163;-83
2023/08/05 02:48:39;;;;;;;131.30;118.40;;;16.20;99.90;;;;;;5101390;28;20213;-84
2023/08/05 02:51:05;;;;;;;120.60;108.13;;;16.20;99.90;;;;;;5101253;28;20177;-83
2023/08/05 02:53:31;;;;;;;130.47;117.20;;;16.20;99.90;;;;;;5100926;28;20251;-84
2023/08/05 02:55:56;;;;;;;128.93;116.20;;;16.20;99.90;;;;;;5100770;28;20202;-83
2023/08/05 02:58:22;;;;;;;123.87;111.37;;;16.20;99.90;;;;;;5101651;28;20174;-84
2023/08/05 03:00:48;;;;;;;122.40;109.73;;;16.20;99.90;;;;;;5100634;28;20198;-83
2023/08/05 03:03:15;;;;;;;125.13;112.63;;;16.10;99.90;;;;;;5101043;28;20167;-83
2023/08/05 03:05:41;;;;;;;128.30;115.30;;;16.20;99.90;;;;;;5100834;28;20170;-83
2023/08/05 03:08:07;;;;;;;125.30;112.70;;;16.20;99.90;;;;;;5082772;28;20401;-83
2023/08/05 03:10:33;;;;;;;121.50;108.60;;;16.20;99.90;;;;;;5101036;28;20422;-83
2023/08/05 03:12:58;;;;;;;113.20;101.00;;;16.20;99.90;;;;;;5101198;28;20408;-83
2023/08/05 03:15:28;;;;;;;112.23;97.23;;;16.10;99.90;;;;;;5102093;28;20607;-85
2023/08/05 03:17:54;;;;;;;123.90;111.23;;;16.10;99.90;;;;;;5101915;28;20166;-84
2023/08/05 03:20:28;;;;;;;127.13;114.00;;;16.10;99.90;;;;;;5101530;28;20431;-84
2023/08/05 03:22:54;;;;;;;127.03;114.40;;;16.10;99.90;;;;;;5101861;28;20247;-83
2023/08/05 03:25:21;;;;;;;120.70;106.50;;;16.10;99.90;;;;;;5101692;28;20421;-84
2023/08/05 03:27:48;;;;;;;123.00;110.50;;;16.10;99.90;;;;;;5083577;28;20907;-84
2023/08/05 03:30:14;;;;;;;122.83;109.90;;;16.10;99.90;;;;;;5100547;28;20424;-85
2023/08/05 03:32:39;;;;;;;113.90;101.80;;;16.10;99.90;;;;;;5100706;28;20768;-84
2023/08/05 03:35:05;;;;;;;113.57;101.23;;;16.00;99.90;;;;;;5100977;28;20202;-83
2023/08/05 03:37:31;;;;;;;120.33;107.87;;;16.00;99.90;;;;;;5100479;28;20171;-84
2023/08/05 03:39:56;;;;;;;116.57;104.07;;;16.00;99.90;;;;;;5100520;28;20568;-84
2023/08/05 03:42:22;;;;;;;116.03;100.37;;;16.00;99.90;;;;;;5100827;28;20291;-83
2023/08/05 03:44:48;;;;;;;119.17;106.00;;;16.00;99.90;;;;;;5082683;28;20257;-84
2023/08/05 03:47:13;;;;;;;135.03;121.70;;;16.00;99.90;;;;;;5100140;28;20170;-84
2023/08/05 03:49:39;;;;;;;110.13;91.90;;;16.00;99.90;;;;;;5100516;28;20604;-84
2023/08/05 03:52:05;;;;;;;120.63;107.70;;;16.00;99.90;;;;;;5100064;28;20179;-83
2023/08/05 03:54:31;;;;;;;109.03;95.17;;;16.00;99.90;;;;;;5100994;28;20423;-84
2023/08/05 03:56:59;;;;;;;119.17;106.30;;;16.00;99.90;;;;;;5100456;28;20397;-84
2023/08/05 03:59:25;;;;;;;123.47;110.97;;;16.00;99.90;;;;;;5100058;28;20182;-83
2023/08/05 04:01:51;;;;;;;124.73;111.73;;;16.10;99.90;;;;;;5100204;28;20789;-83
2023/08/05 04:04:16;;;;;;;112.30;100.30;;;16.00;99.90;;;;;;5100807;28;20479;-83
2023/08/05 04:06:42;;;;;;;112.33;98.30;;;16.00;99.90;;;;;;5100051;28;20425;-84
2023/08/05 04:09:08;;;;;;;115.73;102.37;;;16.00;99.90;;;;;;5099959;28;20183;-83
2023/08/05 04:11:36;;;;;;;109.07;95.37;;;16.00;99.90;;;;;;5082342;28;20170;-83
2023/08/05 04:14:03;;;;;;;109.80;97.93;;;16.00;99.90;;;;;;5100413;28;20399;-84
2023/08/05 04:16:29;;;;;;;112.27;99.30;;;16.00;99.90;;;;;;5099691;28;20921;-83
2023/08/05 04:18:57;;;;;;;111.00;96.77;;;16.00;99.90;;;;;;5099652;28;20427;-84
2023/08/05 04:21:28;;;;;;;108.73;96.20;;;16.00;99.90;;;;;;5099826;28;20404;-83
2023/08/05 04:23:56;;;;;;;112.37;96.77;;;16.00;99.90;;;;;;5099881;28;20513;-83
2023/08/05 04:26:22;;;;;;;106.73;94.20;;;16.00;99.90;;;;;;5099414;28;20411;-83
2023/08/05 04:28:48;;;;;;;113.50;101.50;;;16.00;99.90;;;;;;5100262;28;20757;-83
2023/08/05 04:31:14;;;;;;;103.20;87.10;;;16.00;99.90;;;;;;5099495;28;20172;-83
2023/08/05 04:33:47;;;;;;;103.70;85.97;;;16.00;99.90;;;;;;5099127;28;20167;-84
2023/08/05 04:36:13;;;;;;;112.47;100.37;;;16.00;99.90;;;;;;5098832;28;20834;-83
2023/08/05 04:38:39;;;;;;;111.43;99.43;;;16.00;99.90;;;;;;5098763;28;20474;-84
2023/08/05 04:41:05;;;;;;;108.13;94.40;;;16.00;99.90;;;;;;5080719;28;20469;-83
2023/08/05 04:43:30;;;;;;;115.80;103.33;;;16.10;99.90;;;;;;5099170;28;20172;-83
2023/08/05 04:45:57;;;;;;;120.73;108.50;;;16.10;99.90;;;;;;5098671;28;20170;-83
2023/08/05 04:48:23;;;;;;;119.93;107.33;;;16.20;99.90;;;;;;5080691;28;20223;-84
2023/08/05 04:50:49;;;;;;;110.50;97.20;;;16.40;99.90;;;;;;5099142;28;20412;-83
2023/08/05 04:53:15;;;;;;;111.20;99.30;;;16.50;99.90;;;;;;5081055;28;20170;-83
2023/08/05 04:55:41;;;;;;;109.87;90.27;;;16.60;99.90;;;;;;5081140;28;20727;-83
2023/08/05 04:58:08;;;;;;;103.27;85.87;;;16.60;99.90;;;;;;5098701;28;20390;-83
2023/08/05 05:00:34;;;;;;;115.23;102.87;;;16.60;99.90;;;;;;5098049;28;20487;-83
2023/08/05 05:02:59;;;;;;;102.97;89.27;;;16.60;99.90;;;;;;5098602;28;20427;-83
2023/08/05 05:05:25;;;;;;;115.83;103.30;;;16.70;99.90;;;;;;5080410;28;20405;-83
2023/08/05 05:07:51;;;;;;;119.33;107.10;;;16.70;99.90;;;;;;5098290;28;20231;-83
2023/08/05 05:10:17;;;;;;;107.00;95.27;;;16.70;99.90;;;;;;5080347;28;20616;-83
2023/08/05 05:12:42;;;;;;;123.83;111.20;;;16.80;99.90;;;;;;5080440;28;20166;-83
2023/08/05 05:15:08;;;;;;;111.53;99.17;;;16.80;99.90;;;;;;5080613;28;20445;-83
2023/08/05 05:17:35;;;;;;;110.60;98.50;;;16.90;99.90;;;;;;5098195;28;20166;-83
2023/08/05 05:20:03;;;;;;;121.33;108.57;;;16.80;99.90;;;;;;5098155;28;20417;-83
2023/08/05 05:22:29;;;;;;;121.20;108.83;;;16.90;99.90;;;;;;5098414;28;20396;-83
2023/08/05 05:24:54;;;;;;;115.20;102.30;;;16.90;99.90;;;;;;5097721;28;20429;-83
2023/08/05 05:27:20;;;;;;;107.70;87.47;;;16.90;99.90;;;;;;5098703;28;20268;-83
2023/08/05 05:29:46;;;;;;;125.63;112.27;;;16.70;99.90;;;;;;5097992;28;20685;-83
2023/08/05 05:32:11;;;;;;;126.13;113.47;;;16.70;99.90;;;;;;5079951;28;20163;-83
2023/08/05 05:34:37;;;;;;;131.17;118.43;;;16.70;99.90;;;;;;5097937;28;20630;-83
2023/08/05 05:37:03;;;;;;;140.20;126.53;;;16.60;99.90;;;;;;5099134;28;20178;-83
2023/08/05 05:39:29;;;;;;;151.90;138.10;;;16.50;99.90;;;;;;5080273;28;20194;-83
2023/08/05 05:41:55;;;;;;;163.80;149.40;;;16.50;99.90;;;;;;5097656;28;20195;-83
2023/08/05 05:44:24;;;;;;;173.77;159.20;;;16.50;99.90;;;;;;5079804;28;20909;-83
2023/08/05 05:46:50;;;;;;;182.97;167.47;;;16.50;99.90;;;;;;5098346;28;20406;-83
2023/08/05 05:49:15;;;;;;;191.00;175.73;;;16.50;99.90;;;;;;5097962;28;20538;-84
2023/08/05 05:51:45;;;;;;;192.57;176.93;;;16.50;99.90;;;;;;5097917;28;20173;-83
2023/08/05 05:54:11;;;;;;;162.67;148.57;;;16.50;99.90;;;;;;5097661;28;20163;-83
2023/08/05 05:56:37;;;;;;;163.70;149.40;;;16.50;99.90;;;;;;5079885;28;20855;-83
2023/08/05 05:59:02;;;;;;;165.87;151.77;;;16.60;99.90;;;;;;5097319;28;20432;-83
2023/08/05 06:01:28;;;;;;;151.47;137.80;;;16.60;99.90;;;;;;5079607;28;20164;-82
2023/08/05 06:03:54;;;;;;;136.47;123.20;;;16.60;99.90;;;;;;5097477;28;20175;-82
2023/08/05 06:06:19;;;;;;;131.53;118.80;;;16.50;99.90;;;;;;5079392;28;20614;-82
2023/08/05 06:08:45;;;;;;;143.03;129.70;;;16.50;99.90;;;;;;5097254;28;20191;-82
2023/08/05 06:11:11;;;;;;;142.70;128.90;;;16.50;99.90;;;;;;5098274;28;20323;-82
2023/08/05 06:13:37;;;;;;;136.47;123.47;;;16.50;99.90;;;;;;5100682;28;20538;-81
2023/08/05 06:16:03;;;;;;;130.33;117.67;;;16.50;99.90;;;;;;5100175;28;20251;-82
2023/08/05 06:18:29;;;;;;;126.63;113.97;;;16.50;99.90;;;;;;5101095;28;20436;-82
2023/08/05 06:20:57;;;;;;;142.13;128.83;;;16.40;99.90;;;;;;5101338;28;20397;-82
2023/08/05 06:23:23;;;;;;;148.20;134.40;;;16.40;99.90;;;;;;5082984;28;20176;-81
2023/08/05 06:25:48;;;;;;;135.53;122.40;;;16.50;99.90;;;;;;5082079;28;20419;-82
2023/08/05 06:28:14;;;;;;;133.73;120.63;;;16.50;99.90;;;;;;5101624;28;20191;-83
2023/08/05 06:30:46;;;;;;;133.27;120.33;;;16.60;99.90;;;;;;5101904;28;20607;-82
2023/08/05 06:33:12;;;;;;;147.83;134.43;;;16.50;99.90;;;;;;5101139;28;20248;-81
2023/08/05 06:35:39;;;;;;;155.03;141.17;;;16.60;99.90;;;;;;5081757;28;20444;-81
2023/08/05 06:40:44;;;;;;;143.17;129.97;;;16.70;99.90;;;;;;5118141;22;20490;-84
2023/08/05 06:43:09;;;;;;;138.77;125.67;;;16.80;99.90;;;;;;5022107;28;20911;-84
2023/08/05 06:45:39;;;;;;;131.83;119.17;;;16.90;99.90;;;;;;5021406;28;20415;-87
2023/08/05 06:48:23;;;;;;;122.23;110.03;;;16.90;99.90;;;;;;5036879;28;20244;-88
2023/08/05 06:50:54;;;;;;;121.17;108.57;;;16.80;99.90;;;;;;4999208;28;20404;-87
2023/08/05 06:53:39;;;;;;;124.00;111.53;;;16.80;99.90;;;;;;5089925;22;20831;-84
2023/08/05 06:59:26;;;;;;;117.87;105.77;;;16.90;99.90;;;;;;5030501;28;20961;-84
2023/08/05 07:05:45;;;;;;;106.13;90.87;;;16.90;99.90;;;;;;5038653;28;20380;-84
2023/08/05 07:12:13;;;;;;;106.90;92.40;;;17.00;99.90;;;;;;4923592;28;20478;-84
2023/08/05 07:14:54;;;;;;;;;;;;;;;;;;;;;
2023/08/05 07:18:05;;;;;;;109.87;94.00;;;17.10;99.90;;;;;;4957383;29;20811;-84
2023/08/05 07:23:29;;;;;;;116.50;104.17;;;17.10;99.90;;;;;;4918426;29;20802;-84
2023/08/05 07:26:45;;;;;;;;;;;;;;;;;;;;;
2023/08/05 07:29:38;;;;;;;122.20;109.20;;;16.90;99.90;;;;;;4948331;29;20442;-82
2023/08/05 07:32:15;;;;;;;118.83;106.17;;;17.00;99.90;;;;;;4995528;28;20412;-82
2023/08/05 07:35:16;;;;;;;114.40;102.03;;;17.10;99.90;;;;;;5020043;28;20416;-82
2023/08/05 07:37:48;;;;;;;116.83;102.40;;;17.10;99.90;;;;;;5023781;28;20412;-82
2023/08/05 07:40:14;;;;;;;111.57;99.47;;;17.10;99.90;;;;;;5037918;28;20500;-82
2023/08/05 07:42:42;;;;;;;117.13;96.60;;;17.20;99.90;;;;;;5038342;28;20475;-81
2023/08/05 07:45:11;;;;;;;118.03;105.43;;;17.30;99.90;;;;;;5038493;28;20410;-81
2023/08/05 07:47:41;;;;;;;108.67;90.83;;;17.50;99.90;;;;;;5038061;28;20826;-81
2023/08/05 07:50:10;;;;;;;114.60;97.93;;;17.50;99.90;;;;;;5038294;28;20427;-81
2023/08/05 07:52:39;;;;;;;109.07;93.40;;;17.50;99.90;;;;;;5038672;28;20415;-81
2023/08/05 07:55:05;;;;;;;110.97;97.53;;;17.50;99.90;;;;;;5038051;28;20468;-81
2023/08/05 07:57:31;;;;;;;116.33;104.17;;;17.70;99.90;;;;;;5020775;28;20407;-81
2023/08/05 07:59:57;;;;;;;109.30;97.30;;;17.80;99.90;;;;;;5019962;28;20431;-81
2023/08/05 08:02:24;;;;;;;108.97;94.20;;;17.80;99.90;;;;;;5038132;28;20764;-81
2023/08/05 08:04:54;;;;;;;114.87;102.57;;;17.90;99.90;;;;;;5038227;28;20403;-80
2023/08/05 08:07:20;;;;;;;109.10;92.60;;;18.00;99.90;;;;;;5037705;28;20408;-81
2023/08/05 08:09:46;;;;;;;116.47;99.83;;;18.00;99.90;;;;;;5037784;28;20424;-81
2023/08/05 08:12:12;;;;;;;120.53;107.87;;;18.00;99.90;;;;;;5038402;28;20400;-80
2023/08/05 08:14:37;;;;;;;105.50;87.13;;;18.20;99.90;;;;;;5037740;28;20223;-81
2023/08/05 08:17:03;;;;;;;106.00;92.03;;;18.40;99.90;;;;;;5037739;28;20518;-81
2023/08/05 08:19:29;;;;;;;101.97;80.27;;;18.50;99.90;;;;;;5038179;28;20188;-81
2023/08/05 08:21:55;;;;;;;112.70;92.17;;;18.60;99.90;;;;;;5038432;28;20819;-80
2023/08/05 08:24:20;;;;;;;85.77;41.97;;;18.80;99.90;;;;;;5037956;28;20240;-81
2023/08/05 08:26:46;;;;;;;82.43;28.00;;;18.80;99.90;;;;;;5037569;28;20165;-81
2023/08/05 08:29:12;;;;;;;80.77;22.80;;;19.00;99.90;;;;;;5037472;28;20189;-81
2023/08/05 08:31:37;;;;;;;76.30;13.13;;;19.00;99.90;;;;;;5019568;28;20567;-81
2023/08/05 08:34:03;;;;;;;85.20;39.53;;;19.00;99.90;;;;;;5037582;28;20523;-81
2023/08/05 08:36:29;;;;;;;75.10;16.00;;;19.10;99.90;;;;;;5036726;28;20475;-81
2023/08/05 08:38:55;;;;;;;78.97;15.63;;;19.20;99.90;;;;;;5037450;28;20193;-81
2023/08/05 08:41:20;;;;;;;77.00;15.60;;;19.20;99.90;;;;;;5037306;28;20168;-81
2023/08/05 08:43:48;;;;;;;74.40;15.03;;;19.30;99.90;;;;;;5037234;28;20245;-81
2023/08/05 08:46:14;;;;;;;75.83;13.60;;;19.50;99.90;;;;;;5019526;28;20169;-81
2023/08/05 08:48:43;;;;;;;74.93;10.47;;;19.40;99.90;;;;;;5036794;28;20431;-81
2023/08/05 08:51:09;;;;;;;74.17;10.13;;;19.40;99.90;;;;;;5037244;28;20446;-81
2023/08/05 08:53:35;;;;;;;74.07;12.60;;;19.50;99.90;;;;;;5037154;28;20412;-81
2023/08/05 08:56:01;;;;;;;72.40;9.20;;;19.60;99.90;;;;;;5036775;28;20472;-81
2023/08/05 08:58:27;;;;;;;73.87;9.37;;;19.70;99.90;;;;;;5019302;28;20765;-81
2023/08/05 09:00:53;;;;;;;74.87;10.13;;;19.50;99.90;;;;;;5037763;28;20444;-81
2023/08/05 09:03:24;;;;;;;72.80;8.80;;;19.50;99.90;;;;;;5037188;28;20256;-81
2023/08/05 09:05:54;;;;;;;73.47;9.10;;;19.50;99.90;;;;;;5036844;28;20384;-81
2023/08/05 09:08:20;;;;;;;74.07;10.73;;;19.30;99.90;;;;;;5036454;28;20404;-81
2023/08/05 09:10:49;;;;;;;76.37;17.97;;;19.50;99.90;;;;;;5036645;28;20409;-80
2023/08/05 09:13:16;;;;;;;77.37;24.50;;;19.60;99.90;;;;;;5036266;28;20161;-81
2023/08/05 09:15:42;;;;;;;74.87;10.50;;;19.50;99.90;;;;;;5036470;28;20803;-80
2023/08/05 09:18:08;;;;;;;75.00;12.80;;;19.70;99.90;;;;;;5035928;28;20400;-81
2023/08/05 09:20:42;;;;;;;85.37;45.70;;;19.90;99.90;;;;;;5037344;28;20397;-80
2023/08/05 09:23:10;;;;;;;85.07;43.90;;;20.10;95.70;;;;;;5036191;28;20157;-80
2023/08/05 09:25:40;;;;;;;84.77;41.53;;;20.30;97.90;;;;;;5036322;28;20415;-80
2023/08/05 09:28:06;;;;;;;75.20;16.87;;;20.40;93.20;;;;;;5017857;28;20413;-80
2023/08/05 09:30:35;;;;;;;82.53;31.23;;;20.40;72.50;;;;;;5036107;28;20434;-81
2023/08/05 09:33:01;;;;;;;78.13;20.37;;;20.30;83.70;;;;;;5018351;28;20196;-81
2023/08/05 09:35:27;;;;;;;76.40;21.10;;;20.20;80.90;;;;;;5036369;28;20447;-81
2023/08/05 09:37:54;;;;;;;87.27;40.33;;;20.30;80.40;;;;;;5018133;28;20924;-80
2023/08/05 09:40:36;;;;;;;83.40;37.27;;;20.40;93.60;;;;;;5036204;28;20208;-81
2023/08/05 09:43:03;;;;;;;78.50;20.63;;;20.50;92.00;;;;;;5036167;28;20472;-81
2023/08/05 09:45:32;;;;;;;76.97;11.87;;;20.70;89.70;;;;;;5036338;28;20402;-81
2023/08/05 09:48:07;;;;;;;73.97;13.13;;;20.70;56.30;;;;;;5018123;28;20482;-82
2023/08/05 09:50:37;;;;;;;74.07;11.80;;;20.60;49.30;;;;;;5035710;28;20415;-81
2023/08/05 09:53:08;;;;;;;72.87;12.20;;;20.60;74.50;;;;;;5018197;28;20446;-80
2023/08/05 09:55:37;;;;;;;78.93;19.93;;;20.70;69.00;;;;;;5036149;28;20454;-81
2023/08/05 09:58:07;;;;;;;77.07;12.87;;;20.90;80.30;;;;;;5036470;28;20418;-80
2023/08/05 10:00:35;;;;;;;73.87;9.97;;;21.20;63.00;;;;;;5035909;28;20429;-81
2023/08/05 10:03:06;;;;;;;75.20;11.83;;;20.90;42.40;;;;;;5017893;28;20405;-80
2023/08/05 10:05:33;;;;;;;72.47;10.43;;;20.80;66.40;;;;;;5035927;28;20793;-81
2023/08/05 10:08:00;;;;;;;73.03;9.90;;;20.60;58.20;;;;;;5036729;28;20498;-81
2023/08/05 10:10:29;;;;;;;75.00;9.60;;;20.70;75.30;;;;;;5035593;28;20424;-81
2023/08/05 10:13:23;;;;;;;72.60;10.10;;;20.70;57.90;;;;;;5035995;28;20404;-80
2023/08/05 10:15:52;;;;;;;72.17;11.20;;;20.60;76.10;;;;;;5014733;28;20448;-80
2023/08/05 10:18:18;;;;;;;71.37;8.50;;;20.50;65.00;;;;;;5035723;28;20887;-81
2023/08/05 10:20:53;;;;;;;74.30;8.43;;;20.60;55.10;;;;;;5035640;28;20406;-80
2023/08/05 10:23:23;;;;;;;73.93;10.80;;;20.50;64.50;;;;;;5035931;28;20472;-81
2023/08/05 10:25:50;;;;;;;73.80;10.63;;;20.40;62.30;;;;;;5035873;28;20422;-80
2023/08/05 10:28:27;;;;;;;72.83;11.70;;;20.40;85.80;;;;;;5035707;28;20439;-80
2023/08/05 10:30:54;;;;;;;72.90;12.20;;;20.40;68.50;;;;;;5018428;28;20437;-81
2023/08/05 10:33:20;;;;;;;72.60;10.80;;;20.40;82.10;;;;;;5035509;28;20404;-81
2023/08/05 10:35:48;;;;;;;71.50;9.87;;;20.50;79.30;;;;;;5017531;28;20462;-80
2023/08/05 10:38:19;;;;;;;72.07;9.50;;;20.50;83.30;;;;;;5035665;28;20308;-81
2023/08/05 10:40:52;;;;;;;71.90;9.93;;;20.60;66.90;;;;;;5035593;28;20458;-81
2023/08/05 10:43:32;;;;;;;71.77;8.70;;;20.50;52.30;;;;;;5017213;28;20417;-80
2023/08/05 10:46:17;;;;;;;73.20;11.10;;;20.80;63.00;;;;;;5035166;28;20439;-80
2023/08/05 10:48:48;;;;;;;71.80;8.37;;;20.90;79.80;;;;;;5035522;28;20438;-81
2023/08/05 10:51:19;;;;;;;72.13;7.60;;;21.20;58.00;;;;;;5017704;28;20454;-80
2023/08/05 10:53:59;;;;;;;70.63;6.33;;;21.20;44.20;;;;;;5035403;28;20427;-81
2023/08/05 10:56:35;;;;;;;70.70;5.73;;;21.30;38.60;;;;;;5017589;28;20451;-81
2023/08/05 10:59:02;;;;;;;70.20;5.03;;;21.30;37.00;;;;;;5020346;28;20431;-81
2023/08/05 11:01:54;;;;;;;70.20;5.97;;;21.60;37.60;;;;;;5039392;28;20408;-81
2023/08/05 11:04:30;;;;;;;70.57;5.47;;;21.70;15.70;;;;;;5021301;28;20412;-81
2023/08/05 11:06:59;;;;;;;74.03;5.80;;;21.50;9.10;;;;;;5038671;28;20419;-81
2023/08/05 11:09:26;;;;;;;71.20;7.67;;;21.60;31.30;;;;;;5039073;28;20518;-81
2023/08/05 11:11:52;;;;;;;71.00;6.50;;;21.70;49.30;;;;;;5038843;28;20474;-81
2023/08/05 11:14:19;;;;;;;70.60;5.50;;;21.70;1.00;;;;;;5039229;28;20434;-81
2023/08/05 11:16:48;;;;;;;70.97;6.43;;;21.90;21.30;;;;;;5038479;28;20454;-81
2023/08/05 11:19:15;;;;;;;70.40;6.10;;;22.10;1.00;;;;;;5038539;28;20429;-81
2023/08/05 11:21:46;;;;;;;72.10;7.13;;;22.40;1.00;;;;;;5021132;28;21004;-81
2023/08/05 11:24:18;;;;;;;70.80;5.60;;;22.80;1.00;;;;;;5038639;28;20408;-81
2023/08/05 11:26:46;;;;;;;70.20;6.37;;;22.90;1.00;;;;;;5038354;28;20918;-81
2023/08/05 11:29:13;;;;;;;77.70;22.67;;;23.20;1.00;;;;;;5038633;28;20432;-81
2023/08/05 11:31:50;;;;;;;76.67;20.70;;;23.50;1.00;;;;;;5038474;28;20404;-81
2023/08/05 11:34:22;;;;;;;76.73;19.00;;;23.70;1.00;;;;;;5020885;28;20407;-81
2023/08/05 11:36:55;;;;;;;76.60;22.67;;;23.60;1.00;;;;;;5038213;28;20452;-81
2023/08/05 11:39:28;;;;;;;74.80;15.97;;;23.20;1.00;;;;;;5037714;28;20787;-81
2023/08/05 11:41:54;;;;;;;75.60;21.23;;;23.00;1.00;;;;;;5020427;28;20415;-81
2023/08/05 11:44:21;;;;;;;77.77;22.30;;;23.20;1.00;;;;;;5020578;28;20895;-81
2023/08/05 11:46:46;;;;;;;77.27;23.03;;;23.40;1.00;;;;;;5037807;28;20490;-81
2023/08/05 11:49:13;;;;;;;70.47;5.60;;;23.70;1.00;;;;;;5037766;28;20546;-81
2023/08/05 11:51:52;;;;;;;71.00;5.33;;;24.10;1.00;;;;;;5037738;28;20165;-81
2023/08/05 11:54:24;;;;;;;74.83;18.00;;;24.20;1.00;;;;;;5038033;28;20474;-82
2023/08/05 11:56:50;;;;;;;71.77;5.70;;;24.20;1.00;;;;;;5038206;28;20540;-81
2023/08/05 11:59:15;;;;;;;70.90;4.77;;;24.40;1.00;;;;;;5037595;28;20451;-81
2023/08/05 12:01:42;;;;;;;70.17;4.50;;;24.00;1.00;;;;;;5037787;28;20228;-80
2023/08/05 12:04:08;;;;;;;70.30;5.93;;;23.60;1.00;;;;;;5037635;28;20317;-81
2023/08/05 12:06:33;;;;;;;69.97;4.53;;;23.40;1.00;;;;;;5019715;28;20915;-81
2023/08/05 12:09:00;;;;;;;70.57;5.30;;;22.90;1.00;;;;;;5019655;28;20444;-81
2023/08/05 12:11:26;;;;;;;71.50;8.67;;;22.90;1.00;;;;;;5019755;28;20173;-81
2023/08/05 12:13:52;;;;;;;72.00;9.60;;;22.80;1.00;;;;;;5037561;28;20490;-81
2023/08/05 12:16:18;;;;;;;72.30;11.20;;;22.70;1.00;;;;;;5019181;28;20452;-80
2023/08/05 12:18:44;;;;;;;72.77;11.47;;;22.30;1.00;;;;;;5036891;28;20178;-80
2023/08/05 12:21:11;;;;;;;74.30;11.93;;;21.90;1.00;;;;;;5019221;28;20405;-79
2023/08/05 12:23:41;;;;;;;71.37;9.43;;;21.60;1.00;;;;;;5037750;28;20888;-79
2023/08/05 12:26:10;;;;;;;74.00;6.97;;;21.40;1.00;;;;;;5037108;28;20412;-79
2023/08/05 12:28:37;;;;;;;70.60;5.80;;;21.50;8.00;;;;;;5037072;28;20903;-81
2023/08/05 12:31:03;;;;;;;72.90;5.47;;;21.40;15.10;;;;;;5036504;28;20406;-79
2023/08/05 12:33:29;;;;;;;71.20;6.30;;;21.20;27.50;;;;;;5017805;28;20470;-78
2023/08/05 12:35:55;;;;;;;74.17;9.37;;;21.10;51.10;;;;;;5035669;28;20459;-78
2023/08/05 12:38:21;;;;;;;73.90;15.73;;;21.10;48.40;;;;;;5035786;28;20165;-78
2023/08/05 12:40:47;;;;;;;75.60;13.77;;;21.10;66.60;;;;;;5036181;28;20403;-79